Date,TemperatureHighF,TemperatureAvgF,TemperatureLowF,DewpointHighF,DewpointAvgF,DewpointLowF,HumidityHigh,HumidityAvg,HumidityLow,PressureMaxIn,PressureMinIn,WindSpeedMaxMPH,WindSpeedAvgMPH,GustSpeedMaxMPH,PrecipitationSumIn
2013-1-1,39,35,32,33,29,27,84,78,71,29.81,29.67,18,12,21,0.00
2013-1-2,42,39,35,36,32,29,87,76,64,30.24,29.73,23,12,25,0.00
2013-1-3,42,39,35,39,33,28,90,81,68,30.25,30.14,31,18,36,0.08
2013-1-4,49,46,42,47,42,38,98,87,69,30.27,30.05,30,14,33,0.21
2013-1-5,49,45,41,46,42,40,99,89,79,30.21,30.05,24,13,28,0.00
2013-1-6,44,42,40,42,40,38,99,93,84,30.19,30.00,27,10,27,0.08
2013-1-7,44,39,37,42,38,36,99,96,88,30.21,30.06,18,6,19,0.07
2013-1-8,41,39,37,41,39,37,99,97,94,30.18,30.03,12,6,14,0.07
2013-1-9,43,40,39,41,39,36,99,95,88,30.06,29.86,14,8,17,0.00
2013-1-10,39,37,36,37,33,30,95,85,74,29.87,29.65,24,14,25,0.11
2013-1-11,36,29,26,31,22,15,99,75,61,29.94,29.65,21,11,22,0.00
2013-1-12,32,26,21,20,17,13,79,68,55,30.00,29.92,14,7,16,0.00
2013-1-13,30,25,22,20,17,14,80,73,57,29.99,29.95,14,6,15,0.00
2013-1-14,31,26,22,27,22,19,90,85,77,29.96,29.82,11,5,14,0.00
2013-1-15,30,24,19,24,20,15,88,83,67,29.85,29.67,10,4,11,0.00
2013-1-16,28,26,25,25,22,21,92,86,78,29.70,29.65,10,4,11,0.00
2013-1-17,28,26,24,23,22,18,89,84,75,29.79,29.66,17,11,20,0.00
2013-1-18,24,22,20,21,18,16,90,86,80,29.79,29.60,14,8,14,0.00
2013-1-19,22,20,18,16,14,12,85,78,69,29.60,29.46,15,6,17,0.00
2013-1-20,26,23,20,24,19,15,93,86,81,29.48,29.38,15,9,17,0.00
2013-1-21,26,25,21,24,23,19,93,92,90,29.52,29.36,12,5,12,0.00
2013-1-22,24,20,18,19,15,13,91,81,70,29.69,29.52,10,5,10,0.00
2013-1-23,24,21,19,19,16,13,85,82,75,29.73,29.67,9,5,10,0.00
2013-1-24,25,22,20,20,18,15,87,84,80,29.89,29.70,14,6,14,0.00
2013-1-25,23,19,11,17,14,7,84,80,72,30.04,29.89,12,6,13,0.00
2013-1-26,18,12,3,12,6,-3,83,76,66,29.99,29.87,14,5,14,0.00
2013-1-27,30,24,15,28,20,10,98,83,75,29.89,29.65,15,8,16,0.00
2013-1-28,38,34,29,33,31,28,99,90,77,30.00,29.67,17,9,20,0.04
2013-1-29,42,38,34,40,35,30,95,88,77,29.99,29.81,26,16,31,0.04
2013-1-30,54,48,42,49,44,37,95,86,71,29.84,29.68,36,20,40,0.27
2013-1-31,47,44,41,40,33,28,83,67,50,29.95,29.74,37,20,45,0.02
2013-2-1,44,40,37,38,35,32,98,81,64,29.81,29.26,30,13,38,0.09
2013-2-2,39,37,31,38,32,19,99,84,61,29.70,29.16,24,11,27,0.09
2013-2-3,37,32,27,29,22,18,86,67,52,29.91,29.70,23,11,31,0.00
2013-2-4,41,36,32,38,33,29,99,89,78,29.75,29.66,30,18,35,0.00
2013-2-5,45,39,34,37,33,27,95,80,62,29.75,29.45,23,11,31,0.00
2013-2-6,41,34,28,29,23,17,86,65,43,29.56,29.44,17,6,17,0.00
2013-2-7,39,31,27,30,25,20,95,79,61,29.77,29.55,16,5,17,0.00
2013-2-8,39,30,27,26,23,16,91,76,45,29.88,29.76,14,6,14,0.00
2013-2-9,32,29,27,25,22,17,88,75,62,29.99,29.87,11,6,11,0.00
2013-2-10,34,28,26,23,18,13,84,67,52,29.97,29.83,12,5,13,0.00
2013-2-11,28,26,22,20,17,15,80,69,61,29.83,29.68,19,9,21,0.00
2013-2-12,28,27,26,26,23,20,93,85,72,29.85,29.65,19,9,20,0.00
2013-2-13,30,28,27,26,24,21,94,85,75,30.21,29.85,15,7,15,0.00
2013-2-14,33,29,27,26,24,22,88,83,75,30.22,30.02,11,5,12,0.00
2013-2-15,35,31,29,31,28,26,96,87,77,30.09,29.97,7,3,8,0.00
2013-2-16,36,32,29,31,29,27,97,88,75,30.18,30.10,6,2,6,0.05
2013-2-17,35,32,29,31,29,25,98,88,73,30.19,30.15,7,2,8,0.01
2013-2-18,36,32,30,30,28,26,95,84,73,30.16,30.03,5,2,8,0.00
2013-2-19,32,31,28,32,28,23,99,89,70,30.03,29.75,21,11,23,0.00
2013-2-20,30,28,24,26,22,19,91,82,64,30.05,29.89,18,10,21,0.00
2013-2-21,36,24,21,23,18,12,92,79,49,30.06,29.98,12,6,14,0.01
2013-2-22,24,21,18,22,16,10,92,81,70,29.98,29.75,21,13,22,0.00
2013-2-23,30,26,22,28,23,20,95,92,90,29.78,29.63,16,8,18,0.00
2013-2-24,40,32,27,33,30,25,99,91,70,29.90,29.69,9,5,9,0.13
2013-2-25,39,37,33,39,37,33,99,99,97,30.21,29.87,9,7,11,0.09
2013-2-26,39,36,34,39,35,32,99,97,95,30.30,30.20,13,6,15,0.00
2013-2-27,34,34,34,32,32,32,95,95,95,30.35,30.30,13,13,13,0.00
2013-2-28,37,35,34,32,30,29,95,82,72,30.35,30.16,13,6,13,0.01
2013-3-1,36,34,33,30,28,24,89,80,64,30.18,30.09,15,8,17,0.00
2013-3-2,43,35,28,28,24,20,85,66,43,30.21,30.08,11,6,12,0.00
2013-3-3,38,33,28,28,24,19,78,69,61,30.18,30.03,15,8,16,0.00
2013-3-4,46,37,30,28,24,19,83,61,44,30.25,30.16,11,5,12,0.00
2013-3-5,50,38,26,32,27,20,82,65,45,30.16,29.87,13,7,16,0.00
2013-3-6,53,42,30,38,31,25,85,65,48,29.87,29.66,11,5,12,0.00
2013-3-7,51,43,36,44,40,34,99,88,67,29.66,29.60,8,3,8,0.00
2013-3-8,46,43,40,45,42,40,99,98,94,29.67,29.64,13,6,14,0.00
2013-3-9,41,39,37,40,39,36,99,99,97,29.66,29.59,11,4,12,0.05
2013-3-10,56,45,40,49,41,35,99,85,47,29.59,29.47,17,6,17,0.00
2013-3-11,44,30,25,42,26,20,99,85,75,29.64,29.47,14,9,17,0.04
2013-3-12,29,26,24,25,22,20,89,84,80,29.62,29.45,14,9,15,0.00
2013-3-13,27,24,23,23,19,15,93,79,65,29.63,29.44,14,8,14,0.00
2013-3-14,30,25,20,16,13,10,79,62,46,29.73,29.64,21,11,22,0.00
2013-3-15,31,25,20,17,14,8,85,64,42,29.98,29.71,19,10,21,0.00
2013-3-16,41,28,17,18,12,2,79,54,22,30.06,29.96,10,5,12,0.00
2013-3-17,40,32,24,22,16,10,66,52,41,29.95,29.62,27,16,32,0.01
2013-3-18,41,32,28,32,26,19,99,78,59,29.62,29.22,17,8,21,0.00
2013-3-19,41,35,30,34,31,29,99,88,72,29.55,29.21,21,9,24,0.14
2013-3-20,50,41,33,38,33,29,93,73,53,29.79,29.55,20,7,21,0.02
2013-3-21,38,34,28,36,27,20,94,76,61,30.02,29.78,20,10,22,0.01
2013-3-22,31,28,27,24,20,16,83,69,56,30.04,29.99,19,10,21,0.00
2013-3-23,29,24,16,19,11,1,71,57,43,30.07,30.01,25,18,29,0.00
2013-3-24,33,23,14,12,3,-4,62,44,24,30.06,29.94,31,18,33,0.00
2013-3-25,29,24,21,16,11,8,73,56,43,29.95,29.78,34,20,34,0.00
2013-3-26,31,27,23,9,5,-1,53,40,25,29.80,29.72,31,19,36,0.00
2013-3-27,29,26,23,23,17,7,81,67,46,29.83,29.75,21,10,22,0.00
2013-3-28,41,32,27,27,24,20,83,71,53,29.82,29.72,21,8,23,0.00
2013-3-29,42,35,31,32,25,19,96,68,45,29.72,29.62,24,9,28,0.04
2013-3-30,46,36,30,28,24,21,84,63,38,29.71,29.66,19,7,21,0.00
2013-3-31,35,32,29,28,25,21,90,75,58,29.74,29.67,20,10,24,0.00
2013-4-1,36,31,28,26,22,17,88,69,47,29.85,29.73,16,7,18,0.00
2013-4-2,37,32,28,26,23,19,88,69,52,29.87,29.80,24,13,26,0.00
2013-4-3,36,32,30,25,22,21,77,67,53,29.90,29.86,17,10,19,0.00
2013-4-4,38,33,30,28,26,24,86,76,62,29.88,29.81,10,6,12,0.00
2013-4-5,37,34,31,30,29,28,91,82,73,29.81,29.68,16,10,17,0.00
2013-4-6,38,35,33,31,30,28,88,80,70,30.07,29.80,14,8,14,0.00
2013-4-7,39,35,32,30,28,24,87,76,57,30.09,30.01,13,5,14,0.00
2013-4-8,49,39,26,32,23,14,89,56,27,30.01,29.73,17,8,23,0.00
2013-4-9,52,43,36,40,32,26,95,68,51,29.73,29.67,18,6,23,0.04
2013-4-10,52,45,38,42,40,36,99,83,61,29.85,29.66,24,10,28,0.02
2013-4-11,59,49,41,47,41,37,85,74,52,29.85,29.66,25,11,28,0.00
2013-4-12,56,51,46,50,44,38,99,78,57,29.83,29.58,35,13,40,0.18
2013-4-13,59,50,44,42,38,32,82,64,38,30.27,29.83,27,14,30,0.00
2013-4-14,66,53,40,43,38,34,86,60,34,30.38,30.28,11,6,14,0.00
2013-4-15,68,58,45,43,39,35,79,53,29,30.35,30.23,17,8,21,0.00
2013-4-16,72,60,49,50,42,36,74,54,34,30.26,30.19,14,6,17,0.00
2013-4-17,71,62,53,56,51,47,95,69,44,30.33,30.23,9,5,10,0.00
2013-4-18,79,65,51,54,51,49,95,64,35,30.23,30.07,16,9,21,0.00
2013-4-19,65,56,48,56,46,36,99,70,43,30.28,30.11,14,6,16,0.13
2013-4-20,50,47,43,47,44,42,99,90,75,30.32,30.25,21,12,24,0.06
2013-4-21,68,53,41,52,46,41,99,79,46,30.26,30.00,22,10,22,0.00
2013-4-22,71,58,46,54,50,45,99,77,50,30.09,29.98,14,6,14,0.00
2013-4-23,66,58,50,51,47,43,97,69,45,30.29,30.10,23,9,25,0.00
2013-4-24,71,61,47,47,43,41,85,55,35,30.43,30.29,14,6,18,0.00
2013-4-25,78,65,51,50,47,42,85,56,28,30.41,30.22,12,6,14,0.00
2013-4-26,79,68,53,53,48,41,82,52,26,30.21,29.70,16,8,21,0.00
2013-4-27,66,58,47,57,53,46,99,83,65,29.80,29.69,26,10,27,0.21
2013-4-28,53,46,42,47,44,42,99,92,74,30.07,29.74,17,8,21,0.04
2013-4-29,56,51,46,51,48,45,99,92,79,30.19,30.01,14,5,15,0.00
2013-4-30,60,54,47,54,50,47,99,87,74,30.19,30.10,21,9,26,0.01
2013-5-1,56,50,47,52,49,46,99,95,85,30.26,30.12,17,10,17,0.00
2013-5-2,62,52,47,58,51,47,99,97,84,30.19,30.04,20,7,20,0.21
2013-5-3,52,51,49,51,50,48,99,97,90,30.04,29.97,14,8,15,0.06
2013-5-4,67,53,46,56,50,45,99,89,62,30.17,30.02,24,5,26,0.44
2013-5-5,66,56,49,56,52,48,99,89,62,30.29,30.16,14,6,15,0.01
2013-5-6,65,57,49,62,56,49,99,95,86,30.26,30.07,21,8,21,0.02
2013-5-7,71,63,55,61,59,55,99,87,67,30.08,30.02,24,10,27,0.01
2013-5-8,75,65,55,61,58,54,99,80,54,30.08,30.02,19,6,19,0.00
2013-5-9,77,66,55,62,57,53,99,75,48,30.10,30.00,11,6,14,0.02
2013-5-10,63,57,52,59,56,52,99,96,74,30.07,29.94,14,6,17,0.58
2013-5-11,58,54,51,54,51,47,99,90,69,30.07,30.00,8,4,10,0.06
2013-5-12,65,54,47,51,47,41,99,77,46,30.10,29.94,25,9,29,0.00
2013-5-13,57,49,42,48,43,38,96,79,51,30.14,30.03,22,11,30,0.00
2013-5-14,67,57,49,50,46,42,97,70,42,30.03,29.90,14,6,20,0.00
2013-5-15,72,62,50,54,50,46,87,67,48,29.90,29.70,27,12,29,0.00
2013-5-16,73,65,53,55,52,47,92,64,41,29.71,29.58,34,15,44,0.04
2013-5-17,75,64,57,59,55,51,94,73,55,29.67,29.58,31,13,35,0.00
2013-5-18,71,60,53,57,53,48,99,78,46,29.95,29.65,24,9,26,0.31
2013-5-19,77,62,49,59,54,49,99,77,46,29.92,29.74,26,9,34,0.09
2013-5-20,68,58,49,54,46,41,99,68,39,30.00,29.87,18,9,24,0.00
2013-5-21,66,57,49,48,46,42,90,67,45,30.00,29.89,17,6,22,0.00
2013-5-22,62,52,44,51,47,42,99,86,60,29.90,29.75,26,10,30,0.13
2013-5-23,56,48,42,43,39,35,96,73,49,29.91,29.78,19,4,19,0.00
2013-5-24,55,46,37,46,42,36,99,87,61,29.89,29.77,14,7,15,0.04
2013-5-25,54,46,42,47,44,41,99,92,71,29.89,29.83,20,6,20,0.18
2013-5-26,48,44,42,44,42,41,99,93,79,29.83,29.67,27,14,30,0.19
2013-5-27,54,48,42,49,46,42,99,93,82,29.83,29.62,24,12,24,0.22
2013-5-28,66,55,44,54,48,43,99,79,47,29.82,29.63,16,8,17,0.00
2013-5-29,68,57,47,57,52,47,99,84,62,29.73,29.57,21,7,21,0.04
2013-5-30,51,49,48,50,49,47,99,99,93,29.73,29.50,16,9,19,0.57
2013-5-31,59,53,49,53,50,46,99,91,67,29.73,29.47,21,6,21,0.15
2013-6-1,57,50,45,56,50,44,99,98,93,29.78,29.69,19,8,24,0.51
2013-6-2,57,51,48,56,50,48,99,98,94,30.07,29.72,31,13,31,0.99
2013-6-3,49,47,46,49,47,45,99,99,97,30.14,30.07,20,9,20,0.45
2013-6-4,60,54,49,54,50,48,99,89,73,30.12,30.07,16,9,19,0.02
2013-6-5,65,57,48,54,48,42,98,74,47,30.19,30.10,18,9,23,0.00
2013-6-6,67,59,52,56,53,50,98,83,65,30.24,30.17,14,6,14,0.00
2013-6-7,74,63,51,60,56,51,99,80,56,30.25,30.17,14,5,17,0.00
2013-6-8,79,68,56,62,59,56,99,75,48,30.19,30.01,13,5,19,0.00
2013-6-9,79,66,57,65,59,55,99,82,43,30.01,29.83,27,6,29,0.07
2013-6-10,62,58,56,61,58,55,99,98,87,29.94,29.81,16,6,17,0.21
2013-6-11,69,62,53,55,49,42,97,65,37,30.16,29.95,21,9,26,0.00
2013-6-12,58,55,52,50,49,48,88,80,72,30.17,30.16,4,4,5,0.00
2013-6-24,55,54,54,54,53,53,97,97,97,30.15,30.14,8,3,12,0.33
2013-6-25,55,53,50,54,52,50,99,97,94,30.22,30.08,25,13,25,0.96
2013-6-26,54,51,49,51,48,46,99,92,75,30.32,30.19,22,10,23,0.11
2013-6-27,64,55,49,52,47,40,96,76,44,30.32,30.25,9,4,11,0.00
2013-6-28,68,58,46,52,47,40,99,70,38,30.26,30.17,13,5,15,0.00
2013-6-29,67,59,50,55,51,49,97,78,53,30.19,30.08,15,8,20,0.00
2013-6-30,64,57,50,56,46,40,99,70,46,30.27,30.16,19,9,21,0.04
2013-7-1,76,65,54,54,50,46,83,60,38,30.22,30.15,14,6,16,0.00
2013-7-2,83,70,56,59,54,51,86,58,37,30.15,30.07,15,6,15,0.00
2013-7-3,77,67,60,66,61,55,99,82,61,30.11,30.01,21,7,25,0.05
2013-7-4,76,68,61,64,62,60,99,81,58,30.33,30.09,12,5,14,0.14
2013-7-5,76,67,60,66,62,60,99,85,59,30.46,30.33,15,6,19,0.00
2013-7-6,75,67,60,65,62,60,99,84,68,30.48,30.42,13,6,15,0.06
2013-7-7,77,69,59,62,58,52,99,69,44,30.50,30.45,13,6,18,0.00
2013-7-8,77,69,59,60,57,53,93,67,45,30.50,30.43,17,6,17,0.00
2013-7-9,76,67,58,61,58,55,99,74,51,30.45,30.35,14,5,16,0.00
2013-7-10,79,71,60,61,58,55,95,67,44,29.81,29.64,21,8,21,0.00
2013-7-11,64,60,55,57,52,50,89,77,64,29.74,29.67,16,8,16,0.00
2013-7-12,70,62,55,57,53,51,91,73,52,29.79,29.72,15,8,15,0.00
2013-7-13,73,67,54,56,52,49,96,62,43,29.81,29.77,17,8,21,0.00
2013-7-14,76,66,56,59,55,51,90,68,45,29.82,29.78,15,7,17,0.00
2013-7-15,70,64,57,59,53,47,96,70,44,29.89,29.78,19,8,21,0.00
2013-7-16,81,67,54,56,52,48,93,62,33,29.93,29.87,10,5,11,0.00
2013-7-17,81,71,57,60,55,50,95,60,35,29.91,29.86,13,5,16,0.00
2013-7-18,82,72,60,61,56,50,85,59,35,29.91,29.84,12,5,20,0.00
2013-7-19,82,74,62,62,58,53,91,61,38,29.87,29.76,18,6,29,0.00
2013-7-20,78,70,61,61,56,52,85,65,43,29.84,29.78,21,6,21,0.00
2013-7-21,82,72,58,60,55,50,93,58,34,29.92,29.84,11,4,16,0.00
2013-7-22,87,74,59,57,52,46,90,51,26,29.84,29.70,10,5,14,0.00
2013-7-23,87,76,59,60,53,45,88,49,24,29.71,29.65,13,6,16,0.00
2013-7-24,88,76,60,62,54,47,77,49,25,29.73,29.64,13,4,13,0.00
2013-7-25,83,72,65,66,64,61,99,78,49,29.75,29.71,12,5,14,0.02
2013-7-26,90,78,64,68,63,58,97,62,35,29.76,29.67,9,4,10,0.00
2013-7-27,96,82,66,66,62,56,95,55,31,29.68,29.57,13,5,14,0.00
2013-7-28,98,86,72,67,63,60,74,49,29,29.69,29.56,14,7,14,0.00
2013-7-29,86,78,69,70,67,62,99,71,49,29.71,29.50,23,10,24,0.01
2013-8-11,62,60,59,53,51,50,82,72,66,29.95,29.94,4,2,5,0.00
2013-8-12,78,66,53,59,53,47,98,67,36,29.99,29.79,11,6,12,0.00
2013-8-13,70,64,58,59,53,40,96,69,34,29.97,29.77,20,8,21,0.01
2013-8-21,64,62,58,52,51,50,78,68,61,30.09,30.07,7,3,7,0.01
2013-8-22,74,62,49,58,52,48,99,73,43,30.07,29.98,8,4,11,0.00
2013-8-23,72,63,51,58,53,50,99,73,47,29.99,29.91,16,7,18,0.00
2013-8-24,75,65,54,59,56,53,98,75,49,29.93,29.77,19,6,20,0.00
2013-8-25,64,60,57,60,57,54,99,91,74,29.78,29.70,21,9,22,0.39
2013-8-26,62,58,56,59,57,54,99,96,76,29.84,29.73,14,7,17,0.33
2013-8-27,61,57,55,57,55,53,99,94,76,29.83,29.78,15,6,15,0.13
2013-8-28,68,59,54,60,56,53,99,91,65,29.93,29.76,14,4,18,0.22
2013-8-29,76,62,52,58,54,49,99,77,38,30.06,29.93,18,5,22,0.01
2013-8-30,78,65,52,58,53,48,98,71,34,30.03,29.95,9,5,11,0.00
2013-8-31,76,67,57,58,55,51,92,68,41,29.97,29.91,21,8,22,0.00
2013-9-1,64,58,52,60,49,40,99,74,44,30.07,29.96,17,8,19,0.27
2013-9-2,63,56,50,55,50,46,95,79,61,30.07,29.96,28,11,28,0.00
2013-9-3,66,63,60,61,59,55,95,86,82,30.15,29.94,23,11,24,0.00
2013-9-4,71,65,60,64,62,60,99,89,77,30.15,30.03,6,4,7,0.00
2013-9-5,68,68,68,62,62,62,84,84,84,30.04,29.89,4,4,4,0.00
2013-9-6,68,68,68,62,62,62,84,84,84,29.88,29.83,4,4,4,0.00
2013-9-7,68,68,68,62,62,62,84,84,84,29.98,29.86,4,4,4,0.00
2013-9-8,68,68,68,62,62,62,84,84,84,29.97,29.86,4,4,4,0.00
2013-9-9,68,68,68,62,62,62,84,84,84,29.95,29.72,4,4,4,0.00
2013-9-10,68,68,68,62,62,62,84,84,84,29.93,29.76,4,4,4,0.00
2013-9-11,68,68,68,62,62,62,84,84,84,29.83,29.75,4,4,4,0.00